Current Weather

Mors Muni - JR Washburn Field

Mors Muni - JR Washburn Field, Illinois (KC09)

Report from: Sunday, February 5, 2023 11:35 PM CST
Current time: Monday, February 6, 2023 12:08 AM CST

Nearby weather
Weather history
Weather forecast

Temperature-1.9°C (28.6°F)
Dew point-1.9°C (28.6°F)
Winds Calm
Visibility10 mi. (16.1 km)
Clouds Sky clear
Altimeter30.16 in.Hg (1021 mB)
Relative humidity100 %
Density altitude-2,269 ft. (-692 m)
Remarks Fully automated report
Automated weather observing station with precipitation discriminator
Flight conditions Visual Meteorological Conditions
Raw dataKC09 060535Z AUTO 00000KT 10SM CLR M02/M02 A3016 RMK AO2 T10191019
An error has occurred. This application may no longer respond until reloaded. Reload 🗙